createdAt,value
2022-10-26T00:00:28.671Z,44.30
2022-10-26T00:03:34.701Z,44.30
2022-10-26T00:06:40.730Z,44.30
2022-10-26T00:09:46.165Z,44.30
2022-10-26T00:12:52.785Z,44.30
2022-10-26T00:16:04.822Z,44.30
2022-10-26T00:19:22.852Z,44.30
2022-10-26T00:22:28.270Z,44.30
2022-10-26T00:25:34.904Z,44.30
2022-10-26T00:28:40.939Z,44.30
2022-10-26T00:31:58.971Z,44.30
2022-10-26T00:35:15.843Z,44.30
2022-10-26T00:38:29.033Z,44.30
2022-10-26T00:41:35.070Z,44.30
2022-10-26T00:45:11.100Z,44.30
2022-10-26T00:48:23.132Z,44.30
2022-10-26T00:51:29.158Z,44.30
2022-10-26T00:54:35.189Z,44.30
2022-10-26T00:57:41.218Z,44.30
2022-10-26T01:00:47.246Z,44.30
2022-10-26T01:03:59.369Z,44.30
2022-10-26T01:07:04.646Z,44.30
2022-10-26T01:10:11.340Z,44.30
2022-10-26T01:13:17.369Z,44.40
2022-10-26T01:16:42.782Z,44.30
2022-10-26T01:20:29.435Z,44.30
2022-10-26T01:23:41.470Z,44.30
2022-10-26T01:27:05.505Z,44.30
2022-10-26T01:30:41.543Z,44.30
2022-10-26T01:33:59.574Z,44.30
2022-10-26T01:37:17.606Z,44.40
2022-10-26T01:40:29.638Z,44.30
2022-10-26T01:43:35.668Z,44.30
2022-10-26T01:46:47.697Z,44.30
2022-10-26T01:50:05.730Z,44.30
2022-10-26T01:53:05.753Z,44.40
2022-10-26T01:56:17.782Z,44.40
2022-10-26T01:59:47.825Z,44.40
2022-10-26T02:03:17.899Z,44.40
2022-10-26T02:06:35.894Z,44.40
2022-10-26T02:09:47.926Z,44.40
2022-10-26T02:13:17.956Z,44.40
2022-10-26T02:16:47.988Z,44.40
2022-10-26T02:20:18.025Z,44.40
2022-10-26T03:05:15.006Z,44.40
2022-10-26T03:37:20.942Z,44.30
2022-10-26T03:40:54.746Z,44.30
2022-10-26T03:44:09.004Z,44.20
2022-10-26T03:47:14.725Z,44.30
2022-10-26T03:50:27.064Z,44.20
2022-10-26T03:53:32.787Z,44.10
2022-10-26T03:56:45.131Z,44.20
2022-10-26T03:59:50.853Z,44.10
2022-10-26T04:02:57.197Z,44.10
2022-10-26T04:06:02.910Z,44.10
2022-10-26T04:09:06.999Z,44.10
2022-10-26T04:12:20.957Z,44.10
2022-10-26T04:15:33.318Z,44.10
2022-10-26T04:18:39.010Z,44.10
2022-10-26T04:21:45.385Z,44.10
2022-10-26T04:24:51.063Z,44.10
2022-10-26T04:28:03.448Z,44.10
2022-10-26T04:31:15.115Z,44.10
2022-10-26T04:34:21.147Z,44.00
2022-10-26T04:37:27.180Z,44.00
2022-10-26T04:40:33.205Z,43.90
2022-10-26T04:44:15.239Z,43.90
2022-10-26T04:47:27.619Z,44.00
2022-10-26T04:50:29.777Z,44.00
2022-10-26T04:53:33.329Z,44.00
2022-10-26T04:56:39.395Z,44.00
2022-10-26T04:59:39.401Z,44.00
2022-10-26T05:02:51.419Z,44.00
2022-10-26T05:05:55.526Z,44.00
2022-10-26T05:09:00.480Z,44.00
2022-10-26T05:12:01.586Z,44.00
2022-10-26T05:15:08.655Z,44.00
2022-10-26T05:18:31.649Z,44.00
2022-10-26T05:21:37.722Z,44.00
2022-10-26T05:24:45.952Z,44.00
2022-10-26T05:27:49.743Z,44.00
2022-10-26T05:30:55.771Z,44.00
2022-10-26T05:34:07.809Z,44.00
2022-10-26T05:37:13.762Z,44.10
2022-10-26T05:40:19.868Z,44.10
2022-10-26T05:43:25.899Z,44.10
2022-10-26T05:46:31.932Z,44.10
2022-10-26T05:49:39.870Z,44.10
2022-10-26T05:52:43.987Z,44.10
2022-10-26T05:55:56.013Z,44.30
2022-10-26T06:34:51.724Z,44.80
2022-10-26T06:37:20.781Z,44.90
2022-10-26T06:39:54.042Z,44.80
2022-10-26T06:42:23.774Z,44.80
2022-10-26T06:44:52.752Z,44.90
2022-10-26T06:47:31.179Z,44.90
2022-10-26T06:50:10.586Z,44.90
2022-10-26T06:52:47.179Z,45.00
2022-10-26T06:55:16.982Z,45.00
2022-10-26T06:57:45.899Z,45.00
2022-10-26T07:00:20.990Z,45.00
2022-10-26T07:02:52.089Z,45.10
2022-10-26T07:09:17.037Z,45.10
2022-10-26T07:16:26.392Z,45.10
2022-10-26T07:19:11.052Z,45.10
2022-10-26T07:22:04.313Z,45.00
2022-10-26T07:25:42.425Z,45.00
2022-10-26T07:29:16.339Z,45.10
2022-10-26T07:36:07.992Z,45.30
2022-10-26T07:38:52.138Z,45.50
2022-10-26T07:42:10.898Z,45.60
2022-10-26T07:53:39.554Z,45.60
2022-10-26T08:01:25.876Z,45.60
2022-10-26T08:04:32.333Z,45.60
2022-10-26T08:07:09.002Z,45.60
2022-10-26T08:10:19.930Z,45.60
2022-10-26T08:13:30.472Z,45.60
2022-10-26T08:16:15.781Z,45.70
2022-10-26T08:19:13.128Z,45.70
2022-10-26T08:22:43.065Z,45.70
2022-10-26T08:26:04.957Z,45.70
2022-10-26T08:29:21.357Z,45.70
2022-10-26T08:32:15.756Z,45.80
2022-10-26T08:35:22.036Z,45.90
2022-10-26T08:38:15.484Z,46.00
2022-10-26T11:35:11.290Z,48.90
2022-10-26T12:51:43.368Z,47.80
2022-10-26T15:06:17.418Z,48.20
2022-10-26T15:09:47.187Z,48.20
2022-10-26T15:12:53.890Z,48.20
2022-10-26T15:15:59.919Z,48.50
2022-10-26T15:19:05.642Z,48.40
2022-10-26T15:21:53.762Z,48.20
2022-10-26T15:24:59.696Z,48.20
2022-10-26T15:28:12.037Z,48.30
2022-10-26T15:31:48.076Z,48.10
2022-10-26T15:34:48.943Z,48.00
2022-10-26T15:37:47.883Z,48.00
2022-10-26T15:40:42.934Z,48.00
2022-10-26T15:43:26.717Z,48.10
2022-10-26T15:46:29.903Z,48.30
2022-10-26T15:49:27.083Z,48.10
2022-10-26T15:52:35.965Z,47.90
2022-10-26T15:55:48.310Z,48.10
2022-10-26T15:58:54.339Z,48.10
2022-10-26T16:01:56.419Z,48.30
2022-10-26T16:04:50.267Z,47.90
2022-10-26T16:07:48.898Z,48.10
2022-10-26T16:11:18.462Z,47.90
2022-10-26T16:14:33.477Z,47.70
2022-10-26T16:17:40.672Z,47.50
2022-10-26T16:20:48.553Z,47.50
2022-10-26T16:23:48.576Z,47.50
2022-10-26T16:26:54.294Z,47.70
2022-10-26T16:29:51.438Z,47.70
2022-10-26T16:32:48.622Z,47.90
2022-10-26T16:35:48.374Z,48.20
2022-10-26T16:38:48.407Z,48.10
2022-10-26T16:41:54.441Z,48.10
2022-10-26T16:44:39.564Z,48.40
2022-10-26T16:47:36.806Z,48.50
2022-10-26T16:50:39.613Z,48.20
2022-10-26T16:53:39.637Z,48.30
2022-10-26T16:56:30.595Z,48.40
2022-10-26T16:59:42.936Z,48.40
2022-10-26T17:02:45.763Z,48.30
2022-10-26T17:05:42.996Z,48.50
2022-10-26T17:08:45.768Z,48.50
2022-10-26T17:11:43.051Z,48.50
2022-10-26T17:14:51.821Z,48.80
2022-10-26T17:17:56.112Z,48.60
2022-10-26T17:21:03.879Z,48.40
2022-10-26T17:24:15.911Z,48.60
2022-10-26T17:27:26.201Z,48.60
2022-10-26T17:30:39.977Z,48.20
2022-10-26T17:33:40.004Z,48.40
2022-10-26T17:36:52.034Z,48.60
2022-10-26T17:40:14.327Z,48.40
2022-10-26T17:47:25.402Z,48.40
2022-10-26T18:01:43.631Z,48.30
2022-10-26T18:20:55.359Z,47.80
2022-10-26T18:53:15.043Z,47.20
2022-10-26T19:17:03.384Z,47.00
2022-10-26T19:20:15.103Z,47.60
2022-10-26T19:23:27.438Z,47.00
2022-10-26T19:26:43.222Z,47.00
2022-10-26T19:29:51.496Z,47.00
2022-10-26T19:33:03.533Z,47.00
2022-10-26T19:36:15.565Z,47.00
2022-10-26T19:39:21.597Z,47.00
2022-10-26T19:42:33.628Z,46.90
2022-10-26T19:45:39.658Z,46.90
2022-10-26T19:48:51.687Z,46.90
2022-10-26T19:51:57.720Z,46.90
2022-10-26T19:55:09.757Z,46.90
2022-10-26T19:58:15.783Z,46.90
2022-10-26T20:01:27.874Z,46.80
2022-10-26T20:04:39.844Z,46.90
2022-10-26T20:07:51.876Z,46.90
2022-10-26T20:10:57.906Z,46.80
2022-10-26T20:14:09.933Z,46.80
2022-10-26T20:17:09.963Z,46.80
2022-10-26T20:20:27.993Z,46.80
2022-10-26T20:23:52.027Z,46.70
2022-10-26T20:27:22.069Z,46.70
2022-10-26T20:30:40.092Z,46.80
2022-10-26T20:33:53.338Z,46.80
2022-10-26T20:37:10.152Z,46.80
2022-10-26T20:40:28.187Z,46.70
2022-10-26T20:43:40.213Z,46.70
2022-10-26T20:46:39.871Z,46.70
2022-10-26T20:49:45.902Z,46.70
2022-10-26T20:52:57.928Z,46.70
2022-10-26T20:56:10.271Z,46.70
2022-10-26T20:59:28.326Z,46.80
2022-10-26T21:02:40.334Z,46.70
2022-10-26T21:05:46.050Z,46.60
2022-10-26T21:08:58.391Z,46.80
2022-10-26T21:11:58.112Z,46.70
2022-10-26T21:15:04.450Z,46.70
2022-10-26T21:18:10.171Z,46.70
2022-10-26T21:21:16.510Z,46.70
2022-10-26T21:24:28.255Z,46.70
2022-10-26T21:27:28.261Z,46.70
2022-10-26T21:30:40.293Z,46.70
2022-10-26T21:33:46.638Z,46.70
2022-10-26T21:36:52.354Z,46.70
2022-10-26T21:40:10.695Z,46.70
2022-10-26T21:43:10.463Z,46.70
2022-10-26T21:46:22.507Z,46.70
2022-10-26T21:49:34.807Z,46.60
2022-10-26T21:52:46.558Z,46.60
2022-10-26T21:56:04.849Z,46.70
2022-10-26T21:59:10.877Z,46.70
2022-10-26T22:02:16.720Z,46.70
2022-10-26T22:05:22.678Z,46.70
2022-10-26T22:08:28.709Z,46.70
2022-10-26T22:11:40.973Z,46.80
2022-10-26T22:14:53.078Z,46.80
2022-10-26T22:18:05.108Z,46.80
2022-10-26T22:21:17.150Z,46.80
2022-10-26T22:24:29.178Z,46.80
2022-10-26T22:27:35.205Z,46.80
2022-10-26T22:30:41.232Z,46.80
2022-10-26T22:34:01.976Z,46.70
2022-10-26T22:37:11.295Z,46.70
2022-10-26T22:40:23.327Z,46.60
2022-10-26T22:43:41.356Z,46.70
2022-10-26T22:46:53.384Z,46.70
2022-10-26T22:49:59.413Z,46.70
2022-10-26T22:53:11.441Z,46.70
2022-10-26T22:56:17.500Z,46.70
2022-10-26T22:59:29.504Z,46.80
2022-10-26T23:02:35.533Z,46.70
2022-10-26T23:05:47.565Z,46.80
2022-10-26T23:08:53.597Z,46.70
2022-10-26T23:12:05.627Z,46.80
2022-10-26T23:15:47.664Z,46.70
2022-10-26T23:45:22.147Z,46.60
